createdAt,value
2023-05-19T00:02:00.502Z,11.10
2023-05-19T00:04:28.502Z,11.10
2023-05-19T00:06:56.752Z,11.10
2023-05-19T00:09:24.101Z,11.10
2023-05-19T00:11:51.390Z,11.10
2023-05-19T00:14:18.506Z,11.10
2023-05-19T00:16:45.871Z,11.10
2023-05-19T00:19:12.959Z,11.00
2023-05-19T00:21:40.743Z,11.00
2023-05-19T00:24:08.028Z,11.00
2023-05-19T00:26:35.103Z,11.00
2023-05-19T00:29:02.093Z,11.00
2023-05-19T00:31:29.159Z,11.00
2023-05-19T00:33:56.244Z,11.00
2023-05-19T00:36:23.536Z,11.00
2023-05-19T00:38:51.468Z,11.00
2023-05-19T00:41:18.871Z,11.00
2023-05-19T00:43:46.143Z,11.00
2023-05-19T00:46:13.198Z,10.90
2023-05-19T00:48:40.395Z,10.90
2023-05-19T00:51:07.477Z,10.90
2023-05-19T00:53:35.587Z,10.90
2023-05-19T00:56:03.558Z,11.00
2023-05-19T00:58:31.278Z,10.90
2023-05-19T01:01:05.407Z,10.90
2023-05-19T01:03:35.706Z,10.80
2023-05-19T01:06:07.550Z,10.80
2023-05-19T01:08:36.579Z,10.80
2023-05-19T01:11:06.810Z,10.80
2023-05-19T01:13:35.952Z,10.80
2023-05-19T01:16:14.473Z,10.80
2023-05-19T01:18:51.186Z,10.80
2023-05-19T01:21:24.470Z,10.80
2023-05-19T01:23:51.734Z,10.80
2023-05-19T01:26:37.544Z,10.70
2023-05-19T01:29:40.096Z,10.70
2023-05-19T01:32:08.230Z,10.70
2023-05-19T01:34:40.120Z,10.70
2023-05-19T01:37:09.165Z,10.60
2023-05-19T01:39:36.553Z,10.60
2023-05-19T01:42:04.480Z,10.60
2023-05-19T01:44:33.340Z,10.60
2023-05-19T01:47:01.018Z,10.50
2023-05-19T01:49:28.152Z,10.50
2023-05-19T01:51:55.258Z,10.50
2023-05-19T01:54:22.532Z,10.40
2023-05-19T01:57:29.862Z,10.30
2023-05-19T02:00:19.859Z,10.20
2023-05-19T02:03:23.224Z,10.10
2023-05-19T02:06:14.449Z,10.10
2023-05-19T02:08:58.774Z,10.00
2023-05-19T02:11:46.767Z,10.00
2023-05-19T02:14:27.815Z,10.00
2023-05-19T02:16:57.528Z,10.00
2023-05-19T02:19:37.829Z,10.00
2023-05-19T02:22:05.076Z,10.10
2023-05-19T02:24:32.686Z,10.00
2023-05-19T02:26:59.764Z,10.00
2023-05-19T02:29:26.816Z,10.00
2023-05-19T02:31:53.884Z,10.00
2023-05-19T02:34:21.314Z,10.00
2023-05-19T02:36:50.096Z,9.90
2023-05-19T02:39:17.211Z,9.90
2023-05-19T02:41:44.284Z,9.90
2023-05-19T02:44:11.309Z,9.90
2023-05-19T02:46:38.391Z,9.90
2023-05-19T02:49:05.566Z,9.90
2023-05-19T02:51:32.621Z,9.90
2023-05-19T02:53:59.609Z,9.90
2023-05-19T02:56:26.609Z,9.80
2023-05-19T02:58:53.612Z,9.80
2023-05-19T03:01:23.585Z,9.80
2023-05-19T03:03:50.798Z,9.80
2023-05-19T03:06:18.558Z,9.80
2023-05-19T03:08:45.571Z,9.80
2023-05-19T03:11:12.720Z,9.80
2023-05-19T03:13:39.774Z,9.80
2023-05-19T03:16:08.335Z,9.80
2023-05-19T03:18:36.331Z,9.80
2023-05-19T03:21:03.568Z,9.80
2023-05-19T03:23:30.584Z,9.80
2023-05-19T03:25:57.609Z,9.90
2023-05-19T03:28:24.636Z,9.80
2023-05-19T03:30:51.746Z,9.90
2023-05-19T03:33:18.992Z,9.90
2023-05-19T03:35:46.257Z,9.90
2023-05-19T03:38:13.320Z,9.90
2023-05-19T03:40:41.526Z,9.90
2023-05-19T03:43:08.832Z,9.90
2023-05-19T03:45:35.950Z,9.90
2023-05-19T03:48:02.981Z,9.90
2023-05-19T03:50:31.749Z,9.80
2023-05-19T03:52:59.079Z,9.90
2023-05-19T03:55:26.271Z,9.90
2023-05-19T03:57:53.347Z,9.90
2023-05-19T04:00:20.536Z,9.90
2023-05-19T04:02:47.845Z,9.80
2023-05-19T04:05:15.484Z,9.90
2023-05-19T04:07:43.319Z,9.90
2023-05-19T04:10:10.742Z,9.90
2023-05-19T04:12:37.807Z,9.90
2023-05-19T04:15:06.222Z,9.90
2023-05-19T04:17:33.341Z,9.90
2023-05-19T04:20:00.342Z,9.90
2023-05-19T04:22:27.422Z,9.90
2023-05-19T04:24:55.245Z,10.00
2023-05-19T04:27:22.379Z,10.00
2023-05-19T04:29:49.787Z,10.10
2023-05-19T04:32:19.453Z,10.10
2023-05-19T04:34:46.575Z,10.20
2023-05-19T04:37:16.692Z,10.20
2023-05-19T04:39:45.515Z,10.30
2023-05-19T04:42:13.737Z,10.30
2023-05-19T04:44:40.814Z,10.30
2023-05-19T04:47:09.187Z,10.40
2023-05-19T04:49:40.076Z,10.40
2023-05-19T04:52:08.376Z,10.40
2023-05-19T04:54:35.796Z,10.40
2023-05-19T04:57:03.348Z,10.50
2023-05-19T04:59:31.173Z,10.50
2023-05-19T05:01:58.423Z,10.60
2023-05-19T05:04:26.178Z,10.70
2023-05-19T05:06:53.283Z,10.90
2023-05-19T05:09:21.852Z,11.00
2023-05-19T05:11:49.281Z,11.00
2023-05-19T05:14:16.688Z,11.10
2023-05-19T05:16:44.287Z,11.10
2023-05-19T05:19:11.876Z,11.20
2023-05-19T05:21:39.213Z,11.20
2023-05-19T05:24:06.719Z,11.20
2023-05-19T05:26:35.710Z,11.40
2023-05-19T05:29:03.803Z,11.50
2023-05-19T05:31:31.654Z,11.40
2023-05-19T05:33:58.992Z,11.40
2023-05-19T05:36:26.111Z,11.40
2023-05-19T05:38:53.154Z,11.50
2023-05-19T05:41:20.390Z,11.60
2023-05-19T05:43:47.458Z,11.60
2023-05-19T05:46:14.554Z,11.60
2023-05-19T05:48:42.905Z,11.60
2023-05-19T05:51:10.319Z,11.60
2023-05-19T05:53:43.368Z,11.50
2023-05-19T05:56:11.893Z,11.60
2023-05-19T05:58:40.914Z,11.70
2023-05-19T06:01:11.352Z,11.70
2023-05-19T06:03:40.894Z,11.80
2023-05-19T06:06:08.241Z,11.80
2023-05-19T06:08:35.375Z,11.90
2023-05-19T06:11:09.484Z,11.90
2023-05-19T06:13:36.986Z,11.90
2023-05-19T06:16:04.510Z,12.00
2023-05-19T06:18:31.581Z,12.10
2023-05-19T06:20:58.727Z,12.30
2023-05-19T06:23:26.997Z,12.40
2023-05-19T06:25:53.991Z,12.60
2023-05-19T06:28:21.121Z,12.70
2023-05-19T06:30:48.183Z,12.80
2023-05-19T06:33:15.400Z,13.00
2023-05-19T06:35:42.443Z,13.00
2023-05-19T06:38:09.541Z,13.00
2023-05-19T06:40:37.208Z,13.00
2023-05-19T06:43:05.292Z,13.10
2023-05-19T06:45:32.886Z,13.20
2023-05-19T06:48:00.689Z,13.20
2023-05-19T06:50:27.950Z,13.10
2023-05-19T06:52:55.000Z,13.20
2023-05-19T06:55:22.155Z,13.20
2023-05-19T06:57:49.239Z,13.20
2023-05-19T07:00:19.271Z,13.30
2023-05-19T07:02:47.740Z,13.40
2023-05-19T07:05:15.253Z,13.40
2023-05-19T07:07:43.662Z,13.40
2023-05-19T07:10:11.382Z,13.50
2023-05-19T07:12:38.450Z,13.70
2023-05-19T07:15:06.130Z,13.90
2023-05-19T07:17:33.182Z,14.10
2023-05-19T07:20:01.766Z,14.20
2023-05-19T07:22:28.933Z,14.40
2023-05-19T07:24:57.251Z,14.50
2023-05-19T07:27:24.386Z,14.50
2023-05-19T07:29:51.519Z,14.60
2023-05-19T07:32:18.774Z,14.50
2023-05-19T07:34:46.128Z,14.50
2023-05-19T07:37:13.224Z,14.60
2023-05-19T07:39:40.359Z,14.50
2023-05-19T07:42:07.403Z,14.60
2023-05-19T07:44:34.946Z,14.80
2023-05-19T07:47:02.263Z,14.80
2023-05-19T07:49:29.877Z,14.90
2023-05-19T07:51:57.677Z,14.90
2023-05-19T07:54:24.830Z,15.00
2023-05-19T07:56:51.924Z,15.10
2023-05-19T07:59:20.163Z,15.10
2023-05-19T08:01:47.389Z,15.30
2023-05-19T08:04:14.600Z,15.40
2023-05-19T08:06:42.953Z,15.40
2023-05-19T08:09:10.444Z,15.40
2023-05-19T08:11:37.726Z,15.50
2023-05-19T08:14:04.976Z,15.70
2023-05-19T08:16:32.184Z,15.70
2023-05-19T08:19:02.768Z,15.90
2023-05-19T08:21:29.977Z,15.80
2023-05-19T08:23:57.281Z,15.90
2023-05-19T08:26:24.444Z,15.90
2023-05-19T08:28:51.509Z,16.10
2023-05-19T08:31:19.032Z,16.30
2023-05-19T08:33:46.165Z,16.50
2023-05-19T08:36:13.239Z,16.70
2023-05-19T08:38:40.329Z,16.90
2023-05-19T08:41:07.484Z,16.80
2023-05-19T08:43:34.856Z,16.70
2023-05-19T08:46:03.957Z,16.90
2023-05-19T08:48:33.970Z,16.80
2023-05-19T08:51:14.339Z,16.90
2023-05-19T08:53:46.661Z,17.00
2023-05-19T08:56:27.058Z,17.00
2023-05-19T08:58:56.887Z,16.80
2023-05-19T09:01:24.329Z,16.70
2023-05-19T09:03:52.883Z,16.90
2023-05-19T09:06:20.152Z,17.10
2023-05-19T09:08:48.503Z,17.00
2023-05-19T09:11:15.714Z,17.00
2023-05-19T09:13:42.968Z,17.00
2023-05-19T09:16:11.126Z,16.70
2023-05-19T09:18:41.170Z,16.60
2023-05-19T09:21:11.371Z,16.50
2023-05-19T09:23:38.559Z,16.60
2023-05-19T09:26:08.933Z,16.50
2023-05-19T09:28:37.946Z,16.70
2023-05-19T09:31:09.907Z,17.00
2023-05-19T09:33:45.518Z,17.20
2023-05-19T09:36:13.885Z,17.30
2023-05-19T09:38:41.664Z,17.50
2023-05-19T09:41:10.040Z,17.60
2023-05-19T09:43:37.087Z,17.70
2023-05-19T09:46:06.654Z,17.80
2023-05-19T09:48:37.606Z,18.00
2023-05-19T09:51:08.168Z,18.10
2023-05-19T09:53:35.713Z,18.30
2023-05-19T09:56:04.477Z,18.40
2023-05-19T09:58:35.661Z,18.40
2023-05-19T10:01:04.188Z,18.40
2023-05-19T10:03:33.195Z,18.50
2023-05-19T10:06:01.999Z,18.40
2023-05-19T10:08:30.900Z,18.40
2023-05-19T10:10:58.529Z,18.50
2023-05-19T10:13:27.126Z,18.50
2023-05-19T10:15:58.623Z,18.50
2023-05-19T10:18:30.101Z,18.50
2023-05-19T10:20:59.101Z,18.70
2023-05-19T10:23:26.874Z,18.80
2023-05-19T10:25:59.340Z,19.00
2023-05-19T10:28:41.220Z,19.20
2023-05-19T10:31:13.333Z,19.40
2023-05-19T10:34:05.125Z,19.50
2023-05-19T10:36:44.758Z,19.70
2023-05-19T10:39:22.474Z,19.90
2023-05-19T10:42:16.135Z,20.00
2023-05-19T10:44:58.288Z,20.10
2023-05-19T10:47:29.701Z,20.30
2023-05-19T10:49:57.334Z,20.10
2023-05-19T10:52:30.376Z,20.10
2023-05-19T10:54:58.534Z,20.30
2023-05-19T10:57:32.281Z,20.50
2023-05-19T11:00:10.397Z,20.40
2023-05-19T11:02:42.028Z,20.50
2023-05-19T11:05:11.224Z,20.70
2023-05-19T11:07:41.204Z,20.90
2023-05-19T11:10:08.684Z,21.00
2023-05-19T11:12:45.160Z,21.00
2023-05-19T11:15:16.913Z,21.20
2023-05-19T11:17:48.879Z,21.00
2023-05-19T11:20:29.554Z,20.90
2023-05-19T11:23:22.041Z,20.80
2023-05-19T11:25:51.608Z,20.90
2023-05-19T11:28:20.856Z,20.70
2023-05-19T11:30:52.730Z,20.60
2023-05-19T11:33:21.959Z,20.70
2023-05-19T11:35:51.612Z,20.90
2023-05-19T11:38:24.022Z,20.90
2023-05-19T11:40:54.591Z,21.10
2023-05-19T11:43:26.015Z,21.00
2023-05-19T11:45:55.118Z,20.90
2023-05-19T11:48:23.016Z,20.90
2023-05-19T11:50:51.214Z,20.90
2023-05-19T11:53:20.228Z,20.90
2023-05-19T11:55:49.063Z,20.80
2023-05-19T11:58:16.982Z,20.90
2023-05-19T12:00:48.046Z,21.10
2023-05-19T12:03:15.855Z,21.30
2023-05-19T12:05:49.159Z,21.50
2023-05-19T12:08:21.812Z,21.80
2023-05-19T12:10:52.651Z,21.70
2023-05-19T12:13:21.136Z,21.40
2023-05-19T12:15:48.360Z,21.20
2023-05-19T12:18:15.646Z,21.30
2023-05-19T12:20:43.331Z,21.40
2023-05-19T12:23:10.475Z,21.50
2023-05-19T12:25:38.665Z,21.40
2023-05-19T12:28:05.982Z,21.30
2023-05-19T12:30:35.133Z,21.20
2023-05-19T12:33:03.178Z,21.30
2023-05-19T12:35:34.873Z,21.20
2023-05-19T12:38:08.369Z,21.20
2023-05-19T12:40:37.987Z,21.10
2023-05-19T12:43:07.009Z,20.90
2023-05-19T12:45:38.918Z,20.80
2023-05-19T12:48:12.884Z,20.80
2023-05-19T12:50:40.171Z,20.80
2023-05-19T12:53:13.132Z,20.80
2023-05-19T12:55:45.080Z,20.90
2023-05-19T12:58:12.823Z,21.00
2023-05-19T13:00:45.684Z,20.80
2023-05-19T13:03:19.973Z,20.80
2023-05-19T13:05:49.270Z,20.90
2023-05-19T13:08:18.390Z,20.80
2023-05-19T13:10:47.050Z,20.70
2023-05-19T13:13:14.920Z,20.80
2023-05-19T13:15:43.678Z,20.70
2023-05-19T13:18:12.969Z,20.90
2023-05-19T13:20:41.851Z,20.90
2023-05-19T13:23:14.404Z,21.00
2023-05-19T13:25:42.517Z,21.00
2023-05-19T13:28:10.434Z,21.00
2023-05-19T13:30:39.437Z,21.00
2023-05-19T13:33:07.630Z,20.90
2023-05-19T13:35:38.208Z,20.80
2023-05-19T13:38:07.045Z,20.70
2023-05-19T13:40:35.190Z,20.50
2023-05-19T13:43:04.091Z,20.60
2023-05-19T13:45:31.380Z,20.50
2023-05-19T13:47:58.551Z,20.30
2023-05-19T13:50:25.903Z,20.40
2023-05-19T13:52:53.508Z,20.30
2023-05-19T13:55:20.758Z,20.40
2023-05-19T13:57:47.882Z,20.50
2023-05-19T14:00:15.510Z,20.80
2023-05-19T14:02:43.371Z,20.90
2023-05-19T14:05:10.789Z,21.10
2023-05-19T14:07:38.562Z,21.30
2023-05-19T14:10:07.073Z,21.40
2023-05-19T14:12:44.793Z,21.50
2023-05-19T14:15:20.422Z,21.50
2023-05-19T14:17:49.138Z,21.60
2023-05-19T14:20:16.343Z,21.60
2023-05-19T14:22:43.439Z,21.50
2023-05-19T14:25:10.712Z,21.30
2023-05-19T14:27:40.275Z,21.20
2023-05-19T14:30:08.238Z,21.10
2023-05-19T14:32:35.382Z,21.10
2023-05-19T14:35:02.738Z,21.20
2023-05-19T14:37:31.921Z,21.20
2023-05-19T14:39:59.605Z,21.20
2023-05-19T14:42:26.696Z,21.40
2023-05-19T14:44:53.872Z,21.50
2023-05-19T14:47:21.074Z,21.60
2023-05-19T14:49:48.220Z,21.70
2023-05-19T14:52:15.396Z,21.70
2023-05-19T14:54:42.478Z,21.80
2023-05-19T14:57:09.559Z,21.90
2023-05-19T14:59:39.777Z,21.90
2023-05-19T15:02:07.303Z,21.90
2023-05-19T15:04:34.423Z,21.90
2023-05-19T15:09:32.036Z,22.00
2023-05-19T15:12:01.382Z,22.00
2023-05-19T15:14:30.438Z,22.00
2023-05-19T15:16:58.595Z,22.00
2023-05-19T15:19:26.498Z,22.00
2023-05-19T15:21:54.263Z,22.00
2023-05-19T15:24:21.468Z,22.00
2023-05-19T15:26:48.895Z,22.00
2023-05-19T15:29:16.080Z,22.00
2023-05-19T15:31:43.249Z,22.00
2023-05-19T15:34:10.474Z,21.90
2023-05-19T15:36:37.539Z,21.90
2023-05-19T15:39:05.214Z,21.80
2023-05-19T15:41:32.372Z,21.80
2023-05-19T15:44:02.849Z,21.70
2023-05-19T15:46:30.804Z,21.60
2023-05-19T15:48:57.894Z,21.50
2023-05-19T15:51:25.692Z,21.40
2023-05-19T15:53:53.678Z,21.30
2023-05-19T15:56:21.720Z,21.20
2023-05-19T15:58:48.949Z,21.20
2023-05-19T16:01:16.928Z,21.10
2023-05-19T16:03:45.436Z,21.10
2023-05-19T16:06:12.832Z,21.10
2023-05-19T16:08:39.947Z,21.10
2023-05-19T16:11:07.229Z,21.10
2023-05-19T16:13:34.521Z,21.10
2023-05-19T16:16:02.012Z,21.10
2023-05-19T16:18:31.753Z,21.00
2023-05-19T16:20:58.832Z,20.90
2023-05-19T16:23:27.753Z,20.90
2023-05-19T16:25:55.042Z,20.90
2023-05-19T16:28:24.464Z,20.90
2023-05-19T16:30:52.158Z,20.90
2023-05-19T16:33:19.284Z,20.80
2023-05-19T16:35:46.451Z,20.80
2023-05-19T16:38:13.563Z,20.70
2023-05-19T16:40:40.725Z,20.70
2023-05-19T16:43:07.866Z,20.70
2023-05-19T16:45:35.009Z,20.70
2023-05-19T16:48:02.209Z,20.70
2023-05-19T16:50:29.584Z,20.60
2023-05-19T16:52:56.611Z,20.50
2023-05-19T16:55:25.487Z,20.50
2023-05-19T16:57:52.681Z,20.50
2023-05-19T17:00:20.067Z,20.50
2023-05-19T17:02:47.309Z,20.50
2023-05-19T17:05:14.410Z,20.50
2023-05-19T17:07:41.522Z,20.50
2023-05-19T17:10:09.297Z,20.50
2023-05-19T17:12:37.040Z,20.50
2023-05-19T17:15:04.628Z,20.50
2023-05-19T17:17:31.765Z,20.50
2023-05-19T17:19:58.855Z,20.50
2023-05-19T17:22:26.646Z,20.40
2023-05-19T17:24:54.400Z,20.30
2023-05-19T17:27:21.446Z,20.10
2023-05-19T17:29:48.506Z,20.00
2023-05-19T17:32:15.630Z,19.90
2023-05-19T17:34:42.678Z,19.80
2023-05-19T17:37:10.053Z,19.80
2023-05-19T17:39:37.120Z,19.60
2023-05-19T17:42:04.377Z,19.60
2023-05-19T17:44:31.408Z,19.60
2023-05-19T17:47:00.482Z,19.80
2023-05-19T17:49:27.677Z,20.00
2023-05-19T17:51:55.002Z,20.00
2023-05-19T17:54:22.370Z,20.00
2023-05-19T17:56:51.193Z,19.80
2023-05-19T17:59:18.783Z,19.80
2023-05-19T18:01:46.873Z,19.70
2023-05-19T18:04:16.246Z,19.50
2023-05-19T18:06:46.425Z,19.40
2023-05-19T18:09:14.606Z,19.20
2023-05-19T18:11:41.572Z,19.10
2023-05-19T18:14:08.658Z,19.00
2023-05-19T18:16:36.145Z,18.90
2023-05-19T18:19:03.718Z,18.80
2023-05-19T18:21:31.565Z,18.70
2023-05-19T18:24:00.715Z,18.70
2023-05-19T18:26:27.837Z,18.60
2023-05-19T18:28:54.894Z,18.50
2023-05-19T18:31:22.158Z,18.50
2023-05-19T18:33:49.481Z,18.40
2023-05-19T18:36:16.861Z,18.30
2023-05-19T18:38:43.966Z,18.30
2023-05-19T18:41:11.048Z,18.20
2023-05-19T18:43:38.926Z,18.20
2023-05-19T18:46:06.365Z,18.10
2023-05-19T18:48:33.596Z,18.00
2023-05-19T18:51:00.715Z,18.00
2023-05-19T18:53:27.767Z,17.90
2023-05-19T18:55:54.790Z,17.80
2023-05-19T18:58:22.009Z,17.70
2023-05-19T19:00:49.416Z,17.70
2023-05-19T19:03:16.673Z,17.70
2023-05-19T19:05:44.371Z,17.60
2023-05-19T19:08:11.505Z,17.60
2023-05-19T19:10:40.962Z,17.50
2023-05-19T19:13:08.058Z,17.50
2023-05-19T19:15:35.226Z,17.40
2023-05-19T19:18:02.510Z,17.30
2023-05-19T19:20:29.603Z,17.30
2023-05-19T19:22:57.246Z,17.20
2023-05-19T19:25:24.362Z,17.10
2023-05-19T19:27:51.784Z,17.10
2023-05-19T19:30:19.135Z,17.00
2023-05-19T19:32:46.300Z,17.00
2023-05-19T19:35:13.566Z,17.00
2023-05-19T19:37:40.614Z,16.90
2023-05-19T19:40:08.239Z,16.90
2023-05-19T19:42:35.575Z,16.80
2023-05-19T19:45:02.870Z,16.70
2023-05-19T19:47:30.016Z,16.70
2023-05-19T19:49:57.108Z,16.70
2023-05-19T19:52:24.173Z,16.60
2023-05-19T19:54:51.596Z,16.60
2023-05-19T19:57:18.709Z,16.50
2023-05-19T19:59:45.876Z,16.50
2023-05-19T20:02:12.998Z,16.40
2023-05-19T20:04:40.128Z,16.40
2023-05-19T20:07:07.483Z,16.30
2023-05-19T20:09:34.546Z,16.30
2023-05-19T20:12:01.713Z,16.20
2023-05-19T20:14:28.704Z,16.20
2023-05-19T20:16:55.778Z,16.10
2023-05-19T20:19:25.243Z,16.10
2023-05-19T20:21:52.309Z,16.00
2023-05-19T20:24:19.326Z,15.90
2023-05-19T20:26:46.703Z,15.90
2023-05-19T20:29:13.825Z,15.90
2023-05-19T20:31:41.361Z,15.80
2023-05-19T20:34:08.473Z,15.80
2023-05-19T20:36:35.764Z,15.70
2023-05-19T20:39:03.862Z,15.70
2023-05-19T20:41:31.931Z,15.70
2023-05-19T20:43:59.024Z,15.60
2023-05-19T20:46:26.394Z,15.60
2023-05-19T20:48:53.613Z,15.60
2023-05-19T20:51:21.938Z,15.60
2023-05-19T20:53:49.018Z,15.50
2023-05-19T20:56:16.222Z,15.50
2023-05-19T20:58:43.368Z,15.40
2023-05-19T21:01:10.698Z,15.40
2023-05-19T21:03:37.813Z,15.30
2023-05-19T21:06:05.173Z,15.30
2023-05-19T21:08:32.195Z,15.30
2023-05-19T21:10:59.543Z,15.20
2023-05-19T21:13:26.621Z,15.20
2023-05-19T21:15:53.665Z,15.20
2023-05-19T21:18:20.731Z,15.10
2023-05-19T21:20:47.815Z,15.10
2023-05-19T21:23:14.875Z,15.10
2023-05-19T21:25:44.007Z,15.10
2023-05-19T21:28:12.419Z,15.10
2023-05-19T21:30:39.622Z,15.00
2023-05-19T21:33:06.921Z,15.10
2023-05-19T21:35:33.950Z,15.10
2023-05-19T21:38:12.046Z,15.10
2023-05-19T21:40:48.348Z,15.00
2023-05-19T21:43:16.116Z,15.00
2023-05-19T21:45:43.260Z,14.90
2023-05-19T21:48:11.576Z,14.80
2023-05-19T21:50:39.176Z,14.70
2023-05-19T21:53:06.297Z,14.70
2023-05-19T21:55:33.438Z,14.60
2023-05-19T21:58:02.534Z,14.50
2023-05-19T22:00:30.265Z,14.40
2023-05-19T22:02:57.408Z,14.30
2023-05-19T22:05:24.494Z,14.30
2023-05-19T22:07:51.535Z,14.30
2023-05-19T22:10:18.663Z,14.20
2023-05-19T22:12:45.770Z,14.20
2023-05-19T22:15:14.610Z,14.20
2023-05-19T22:17:42.635Z,14.20
2023-05-19T22:20:10.089Z,14.20
2023-05-19T22:22:37.145Z,14.20
2023-05-19T22:25:04.945Z,14.10
2023-05-19T22:27:32.154Z,14.00
2023-05-19T22:30:01.878Z,13.90
2023-05-19T22:32:29.021Z,13.90
2023-05-19T22:34:56.140Z,13.80
2023-05-19T22:37:24.562Z,13.70
2023-05-19T22:39:51.782Z,13.60
2023-05-19T22:42:18.896Z,13.60
2023-05-19T22:44:46.061Z,13.60
2023-05-19T22:47:14.199Z,13.50
2023-05-19T22:49:42.786Z,13.50
2023-05-19T22:52:11.227Z,13.40
2023-05-19T22:54:39.025Z,13.40
2023-05-19T22:57:06.648Z,13.40
2023-05-19T22:59:33.794Z,13.40
2023-05-19T23:02:01.492Z,13.30
2023-05-19T23:04:28.645Z,13.30
2023-05-19T23:06:55.802Z,13.20
2023-05-19T23:09:22.884Z,13.20
2023-05-19T23:11:50.358Z,13.10
2023-05-19T23:14:18.898Z,13.10
2023-05-19T23:16:46.240Z,13.10
2023-05-19T23:19:15.507Z,13.00
2023-05-19T23:21:42.745Z,13.00
2023-05-19T23:24:09.890Z,13.00
2023-05-19T23:26:36.989Z,13.00
2023-05-19T23:29:03.998Z,13.00
2023-05-19T23:31:31.068Z,13.00
2023-05-19T23:34:02.003Z,13.00
2023-05-19T23:36:29.060Z,13.00
2023-05-19T23:38:56.143Z,13.10
2023-05-19T23:41:23.174Z,13.00
2023-05-19T23:43:50.205Z,12.90
2023-05-19T23:46:17.361Z,12.90
2023-05-19T23:48:44.527Z,12.80
2023-05-19T23:51:11.999Z,12.70
2023-05-19T23:53:39.323Z,12.70
2023-05-19T23:56:06.770Z,12.70
2023-05-19T23:58:33.853Z,12.70
